Flight Track Log - Related Links

Times and Time Zones

All times are in EDT time to prevent confusion due to time zone crossing. See the N137TK flight status page for this flight to view local times or setup timezone preferences in your user account.

Time Position Orientation Groundspeed Altitude Reporting Facility
EDT Latitude Longitude Course Direction KTS MPH feet Rate Location/Type
Tue 06:16:46 AM 26.2700 -81.8119 354° North 172 198 4,700  Level Miami Center
Tue 06:17:46 AM 26.3158 -81.8114 North 177 204 6,600 1,800 Climbing Miami Center
Tue 06:18:46 AM 26.3619 -81.8111 360° North 177 204 8,300 1,500 Climbing Miami Center
Tue 06:19:46 AM 26.4183 -81.8067 North 183 211 9,600 1,650 Climbing Miami Center
Tue 06:20:00 AM 26.5674 -81.8167 354° North  Level FlightAware Approximate
Tue 06:20:46 AM 26.4625 -81.7992 North 178 205 11,600  Level Miami Center
Tue 06:21:00 AM 26.6371 -81.8245 354° North  Level FlightAware Approximate
Tue 06:21:46 AM 26.5192 -81.7875 10° North 183 211 13,100  Level Miami Center
Tue 06:22:00 AM 26.7069 -81.8322 354° North  Level FlightAware Approximate
Tue 06:22:46 AM 26.5803 -81.7739 11° North 188 216 14,900  Level Miami Center
Tue 06:23:46 AM 26.6350 -81.7644 North 193 222 16,400 1,400 Climbing Miami Center
Tue 06:24:46 AM 26.6894 -81.7528 11° North 199 229 17,700 1,200 Climbing Miami Center
Tue 06:25:46 AM 26.7486 -81.7367 14° North 204 235 18,800 1,150 Climbing Miami Center
Tue 06:26:46 AM 26.8031 -81.7275 North 204 235 20,000 1,150 Climbing Miami Center
Tue 06:27:46 AM 26.8578 -81.7133 13° North 204 235 21,100 1,150 Climbing Miami Center
Tue 06:28:46 AM 26.9147 -81.7017 10° North 204 235 22,300 1,150 Climbing Miami Center
Tue 06:29:46 AM 26.9689 -81.6994 North 199 229 23,400 1,000 Climbing Miami Center
Tue 06:30:46 AM 27.0214 -81.6947 North 193 222 24,300 800 Climbing Miami Center
Tue 06:31:46 AM 27.0756 -81.6922 North 193 222 25,000 350 Climbing Miami Center
Tue 06:32:46 AM 27.1322 -81.6875 North 211 243 25,000  Level Miami Center
Tue 06:33:46 AM 27.2011 -81.6858 North 235 270 25,000  Level Miami Center
Tue 06:34:46 AM 27.2828 -81.6822 North 261 300 25,000  Level Miami Center
Tue 06:35:46 AM 27.3581 -81.6783 North 266 306 25,000  Level Miami Center
Tue 06:36:46 AM 27.4333 -81.6719 North 275 316 25,000  Level Miami Center
Tue 06:37:46 AM 27.5022 -81.6703 North 270 311 25,000  Level Miami Center
Tue 06:38:46 AM 27.5794 -81.6664 North 276 318 25,000  Level Miami Center
Tue 06:39:46 AM 27.6653 -81.6608 North 276 318 25,000  Level Miami Center
Tue 06:40:46 AM 27.7447 -81.6569 North 276 318 25,000  Level Miami Center
Tue 06:41:46 AM 27.8200 -81.6531 North 276 318 25,000  Level Miami Center
Tue 06:42:46 AM 27.8972 -81.6494 North 276 318 25,000  Level Miami Center
Tue 06:43:46 AM 27.9725 -81.6456 North 271 312 25,000  Level Miami Center
Tue 06:45:38 AM 28.1103 -81.6361 North 276 318 25,000  Level Jacksonville Center
Tue 06:46:38 AM 28.1875 -81.6303 North 276 318 25,000  Level Jacksonville Center
Tue 06:47:38 AM 28.2647 -81.6269 North 271 312 25,000  Level Jacksonville Center
Tue 06:48:38 AM 28.3419 -81.6214 North 271 312 25,000  Level Jacksonville Center
Tue 06:49:38 AM 28.4211 -81.6203 North 271 312 25,000  Level Jacksonville Center
Tue 06:50:38 AM 28.4983 -81.6169 North 271 312 25,000  Level Jacksonville Center
Tue 06:51:38 AM 28.5775 -81.6114 North 271 312 25,000  Level Jacksonville Center
Tue 06:52:38 AM 28.6547 -81.6056 North 271 312 25,000  Level Jacksonville Center
Tue 06:53:38 AM 28.7319 -81.6022 North 271 312 25,000  Level Jacksonville Center
Tue 06:54:38 AM 28.8111 -81.5989 North 271 312 25,000  Level Jacksonville Center
Tue 06:55:38 AM 28.8883 -81.5953 North 271 312 25,000  Level Jacksonville Center
Tue 06:56:38 AM 28.9656 -81.6017 356° North 271 312 25,000  Level Jacksonville Center
Tue 06:57:38 AM 29.0408 -81.6100 354° North 271 312 25,000  Level Jacksonville Center
Tue 06:58:38 AM 29.1161 -81.6186 354° North 271 312 25,000  Level Jacksonville Center
Tue 06:59:38 AM 29.1894 -81.6294 353° North 271 312 25,000  Level Jacksonville Center
Tue 07:00:38 AM 29.2603 -81.6428 351° North 271 312 25,000  Level Jacksonville Center
Tue 07:01:38 AM 29.3356 -81.6514 354° North 271 312 25,000  Level Jacksonville Center
Tue 07:02:38 AM 29.4108 -81.6625 353° North 276 318 25,000  Level Jacksonville Center
Tue 07:03:38 AM 29.4861 -81.6711 354° North 276 318 25,000  Level Jacksonville Center
Tue 07:04:38 AM 29.5614 -81.6819 353° North 276 318 25,000  Level Jacksonville Center
Tue 07:05:38 AM 29.6386 -81.6931 353° North 276 318 25,000  Level Jacksonville Center
Tue 07:06:38 AM 29.7119 -81.7017 354° North 276 318 25,000  Level Jacksonville Center
Tue 07:07:38 AM 29.7872 -81.7128 353° North 276 318 25,000  Level Jacksonville Center
Tue 07:08:38 AM 29.8644 -81.7239 353° North 276 318 25,000  Level Jacksonville Center
Tue 07:09:38 AM 29.9375 -81.7325 354° North 276 318 25,000  Level Jacksonville Center
Tue 07:10:38 AM 30.0211 -81.7411 355° North 276 318 25,000  Level Jacksonville Center
Tue 07:11:38 AM 30.0986 -81.7522 353° North 276 318 25,000  Level Jacksonville Center
Tue 07:12:38 AM 30.1739 -81.7608 354° North 276 318 25,000  Level Jacksonville Center
Tue 07:13:38 AM 30.2492 -81.7719 353° North 276 318 25,000  Level Jacksonville Center
Tue 07:14:38 AM 30.3222 -81.7833 352° North 276 318 25,000  Level Jacksonville Center
Tue 07:15:38 AM 30.3975 -81.7919 354° North 276 318 25,000  Level Jacksonville Center
Tue 07:16:38 AM 30.4728 -81.8031 353° North 276 318 25,000  Level Jacksonville Center
Tue 07:17:38 AM 30.5481 -81.8144 353° North 271 312 25,000  Level Jacksonville Center
Tue 07:18:38 AM 30.6275 -81.8303 350° North 278 320 25,000  Level Jacksonville Center
Tue 07:19:38 AM 30.7006 -81.8417 352° North 278 320 25,000  Level Jacksonville Center
Tue 07:20:38 AM 30.7717 -81.8506 354° North 272 313 25,000  Level Jacksonville Center
Tue 07:21:38 AM 30.8450 -81.8617 353° North 267 307 25,000  Level Jacksonville Center
Tue 07:22:38 AM 30.9200 -81.8706 354° North 267 307 25,000  Level Jacksonville Center
Tue 07:23:38 AM 30.9911 -81.8819 352° North 267 307 25,000  Level Jacksonville Center
Tue 07:24:38 AM 31.0644 -81.8933 352° North 267 307 25,000  Level Jacksonville Center
Tue 07:25:38 AM 31.1397 -81.9047 353° North 262 302 25,000  Level Jacksonville Center
Tue 07:26:38 AM 31.2147 -81.9136 354° North 262 302 25,000  Level Jacksonville Center
Tue 07:27:38 AM 31.2858 -81.9250 352° North 262 302 25,000  Level Jacksonville Center
Tue 07:28:38 AM 31.3592 -81.9317 356° North 257 296 25,000  Level Jacksonville Center
Tue 07:29:38 AM 31.4342 -81.9406 354° North 257 296 25,000  Level Jacksonville Center
Tue 07:30:38 AM 31.4969 -81.9497 353° North 257 296 25,000  Level Jacksonville Center
Tue 07:31:38 AM 31.5786 -81.9633 352° North 257 296 25,000  Level Jacksonville Center
Tue 07:32:38 AM 31.6433 -81.9725 353° North 257 296 25,000  Level Jacksonville Center
Tue 07:33:38 AM 31.7206 -81.9839 353° North 257 296 25,000  Level Jacksonville Center
Tue 07:34:38 AM 31.7939 -81.9956 352° North 257 296 25,000  Level Jacksonville Center
Tue 07:35:38 AM 31.8564 -82.0022 355° North 257 296 25,000  Level Jacksonville Center
Tue 07:36:38 AM 31.9358 -82.0136 353° North 257 296 25,000  Level Jacksonville Center
Tue 07:38:57 AM 32.0978 -82.0406 352° North 269 310 25,000  Level Atlanta Center
Tue 07:39:57 AM 32.1731 -82.0514 353° North 270 311 25,000  Level Atlanta Center
Tue 07:40:57 AM 32.2378 -82.0597 354° North 270 311 25,000  Level Atlanta Center
Tue 07:41:57 AM 32.3194 -82.0678 355° North 264 304 25,000  Level Atlanta Center
Tue 07:42:57 AM 32.3947 -82.0831 350° North 264 304 25,000  Level Atlanta Center
Tue 07:43:57 AM 32.4700 -82.0939 353° North 269 310 25,000  Level Atlanta Center
Tue 07:44:57 AM 32.5475 -82.1019 355° North 274 315 25,000  Level Atlanta Center
Tue 07:45:57 AM 32.6250 -82.1150 352° North 274 315 25,000  Level Atlanta Center
Tue 07:46:57 AM 32.7003 -82.1258 353° North 274 315 25,000  Level Atlanta Center
Tue 07:47:57 AM 32.7756 -82.1389 352° North 274 315 25,000  Level Atlanta Center
Tue 07:48:57 AM 32.8592 -82.1519 353° North 279 321 25,000  Level Atlanta Center
Tue 07:49:57 AM 32.9344 -82.1628 353° North 279 321 25,000  Level Atlanta Center
Tue 07:50:57 AM 33.0119 -82.1736 353° North 279 321 25,000  Level Atlanta Center
Tue 07:51:57 AM 33.0894 -82.1817 355° North 279 321 25,000  Level Atlanta Center
Tue 07:52:57 AM 33.1667 -82.1950 352° North 279 321 25,000  Level Atlanta Center
Tue 07:53:57 AM 33.2400 -82.2083 351° North 279 321 25,000  Level Atlanta Center
Tue 07:54:57 AM 33.3194 -82.2192 353° North 279 321 25,000 -250 Level Atlanta Center
Tue 07:55:57 AM 33.3947 -82.2300 353° North 279 321 24,500 -450 Descending Atlanta Center
Tue 07:56:57 AM 33.4742 -82.2408 354° North 279 321 24,100 -250 Descending Atlanta Center
Tue 07:57:57 AM 33.5536 -82.2517 354° North 279 321 24,000 -50 Descending Atlanta Center
Tue 07:58:57 AM 33.6311 -82.2650 352° North 279 321 24,000  Level Atlanta Center
Tue 07:59:57 AM 33.7064 -82.2758 353° North 279 321 24,000  Level Atlanta Center
Tue 08:00:57 AM 33.7900 -82.2892 352° North 279 321 24,000  Level Atlanta Center
Tue 08:01:57 AM 33.8633 -82.3000 353° North 275 316 24,000  Level Atlanta Center
Tue 08:02:57 AM 33.9386 -82.3111 353° North 275 316 24,000 -550 Level Atlanta Center
Tue 08:03:57 AM 34.0161 -82.3247 352° North 275 316 22,900 -950 Descending Atlanta Center
Tue 08:04:57 AM 34.0956 -82.3356 354° North 298 343 22,100 -850 Descending Atlanta Center
Tue 08:05:57 AM 34.1769 -82.3464 354° North 298 343 21,200 -1,050 Descending Atlanta Center
Tue 08:06:57 AM 34.2628 -82.3597 353° North 298 343 20,000 -1,200 Descending Atlanta Center
Tue 08:07:57 AM 34.3464 -82.3758 351° North 298 343 18,800 -1,200 Descending Atlanta Center
Tue 08:08:57 AM 34.4258 -82.3842 355° North 293 337 17,600 -1,200 Descending Atlanta Center
Tue 08:09:57 AM 34.5117 -82.3978 353° North 293 337 16,400 -1,150 Descending Atlanta Center
Tue 08:10:57 AM 34.5892 -82.4114 352° North 293 337 15,300 -1,150 Descending Atlanta Center
Tue 08:11:57 AM 34.6686 -82.4200 355° North 293 337 14,100 -1,200 Descending Atlanta Center
Tue 08:12:57 AM 34.7458 -82.4233 358° North 288 331 12,900 -1,350 Descending Atlanta Center
Tue 08:13:57 AM 34.8336 -82.4344 354° North 288 331 11,400 -1,350 Descending Atlanta Center
Tue 08:14:57 AM 34.9108 -82.4406 356° North 283 326 10,200 -1,200 Descending Atlanta Center
Tue 08:15:57 AM 34.9903 -82.4442 358° North 283 326 9,000 -1,200 Descending Atlanta Center
Tue 08:16:57 AM 35.0675 -82.4553 353° North 278 320 7,800 -1,200 Descending Atlanta Center
Tue 08:17:57 AM 35.1406 -82.4589 358° North 270 311 6,600 -1,050 Descending Atlanta Center
Tue 08:18:57 AM 35.1867 -82.4656 353° North 242 278 5,700 -750 Descending Atlanta Center
Tue 08:19:57 AM 35.2194 -82.4294 42° Northeast 216 249 5,100 9,150 Descending Atlanta Center
Tue 08:20:57 AM 35.2822 -82.4358 355° North 216 249 24,000 18,900 Climbing Atlanta Center
Tue 08:22:00 AM 35.3571 -82.4873 North  Level Estimated
Tue 08:29:00 AM 35.4333 -82.5333 348° North  Level FlightAware Approximate
Tue 08:30:00 AM 35.4362 -82.5418 348° North  Level Estimated

Login

Don't have an account? Register now (free) for customized features, flight alerts, and more!